createdAt,value
2023-04-28T00:00:36.597Z,70.84
2023-04-28T00:01:39.349Z,70.80
2023-04-28T00:02:41.615Z,71.15
2023-04-28T00:03:44.726Z,70.66
2023-04-28T00:04:47.655Z,71.26
2023-04-28T00:05:50.656Z,70.91
2023-04-28T00:06:52.515Z,70.84
2023-04-28T00:07:56.609Z,70.85
2023-04-28T00:08:58.465Z,70.89
2023-04-28T00:10:01.214Z,71.14
2023-04-28T00:11:03.051Z,71.24
2023-04-28T00:12:06.636Z,71.19
2023-04-28T00:13:08.440Z,71.05
2023-04-28T00:14:11.177Z,71.30
2023-04-28T00:15:16.967Z,71.23
2023-04-28T00:16:19.797Z,71.41
2023-04-28T00:17:21.690Z,71.21
2023-04-28T00:18:24.500Z,70.81
2023-04-28T00:19:26.336Z,70.97
2023-04-28T00:20:29.096Z,71.24
2023-04-28T00:21:32.060Z,71.34
2023-04-28T00:22:35.026Z,70.96
2023-04-28T00:23:38.185Z,71.19
2023-04-28T00:24:41.850Z,71.34
2023-04-28T00:25:43.655Z,71.55
2023-04-28T00:26:46.385Z,71.71
2023-04-28T00:27:48.250Z,71.38
2023-04-28T00:28:51.096Z,71.48
2023-04-28T00:29:53.727Z,71.41
2023-04-28T00:30:56.489Z,71.75
2023-04-28T00:31:58.361Z,71.43
2023-04-28T00:33:01.232Z,71.80
2023-04-28T00:34:03.093Z,71.42
2023-04-28T00:35:06.999Z,72.08
2023-04-28T00:36:09.771Z,71.97
2023-04-28T00:37:12.895Z,71.83
2023-04-28T00:38:14.778Z,71.57
2023-04-28T00:39:19.388Z,71.80
2023-04-28T00:40:21.491Z,71.79
2023-04-28T00:41:24.419Z,71.57
2023-04-28T00:42:26.325Z,71.69
2023-04-28T00:43:29.072Z,71.41
2023-04-28T00:44:30.875Z,71.61
2023-04-28T00:45:33.844Z,71.89
2023-04-28T00:46:35.813Z,72.05
2023-04-28T00:47:39.071Z,71.82
2023-04-28T00:48:40.975Z,71.90
2023-04-28T00:49:43.745Z,71.88
2023-04-28T00:50:46.335Z,72.07
2023-04-28T00:51:49.060Z,72.32
2023-04-28T00:52:51.520Z,72.51
2023-04-28T00:53:54.340Z,72.49
2023-04-28T00:54:57.644Z,72.22
2023-04-28T00:56:01.107Z,72.16
2023-04-28T00:57:03.193Z,72.30
2023-04-28T00:58:06.334Z,72.35
2023-04-28T00:59:08.735Z,72.26
2023-04-28T01:00:12.372Z,72.24
2023-04-28T01:01:14.222Z,72.17
2023-04-28T01:02:18.378Z,72.54
2023-04-28T01:03:20.549Z,72.23
2023-04-28T01:04:24.115Z,72.05
2023-04-28T01:05:26.622Z,71.94
2023-04-28T01:06:30.848Z,71.73
2023-04-28T01:07:35.123Z,72.06
2023-04-28T01:08:40.105Z,72.27
2023-04-28T01:09:48.958Z,72.62
2023-04-28T01:10:56.750Z,72.84
2023-04-28T01:12:19.447Z,72.06
2023-04-28T01:13:27.354Z,72.25
2023-04-28T01:14:30.101Z,72.70
2023-04-28T01:15:32.073Z,72.79
2023-04-28T01:16:35.329Z,72.83
2023-04-28T01:17:37.936Z,72.57
2023-04-28T01:18:44.185Z,73.00
2023-04-28T01:19:46.090Z,72.60
2023-04-28T01:20:48.921Z,72.87
2023-04-28T01:21:51.014Z,72.81
2023-04-28T01:22:58.081Z,72.69
2023-04-28T01:24:01.678Z,72.97
2023-04-28T01:25:05.118Z,73.18
2023-04-28T01:26:07.452Z,73.36
2023-04-28T01:27:10.259Z,73.16
2023-04-28T01:28:13.744Z,73.12
2023-04-28T01:29:16.556Z,73.07
2023-04-28T01:30:18.666Z,73.21
2023-04-28T01:31:21.529Z,73.44
2023-04-28T01:32:23.473Z,73.33
2023-04-28T01:33:26.306Z,73.34
2023-04-28T01:34:28.051Z,73.26
2023-04-28T01:35:31.148Z,73.44
2023-04-28T01:36:35.305Z,73.23
2023-04-28T01:37:40.065Z,73.30
2023-04-28T01:38:41.968Z,73.13
2023-04-28T01:39:46.036Z,73.25
2023-04-28T01:40:47.819Z,73.33
2023-04-28T01:41:50.624Z,73.28
2023-04-28T01:42:52.620Z,73.80
2023-04-28T01:43:55.398Z,73.11
2023-04-28T01:44:57.249Z,73.69
2023-04-28T01:46:00.022Z,73.65
2023-04-28T01:47:01.863Z,73.59
2023-04-28T01:48:04.883Z,73.56
2023-04-28T01:49:06.740Z,73.57
2023-04-28T01:50:10.579Z,73.41
2023-04-28T01:51:12.338Z,73.58
2023-04-28T01:52:15.155Z,73.18
2023-04-28T01:53:20.586Z,73.32
2023-04-28T01:54:23.942Z,73.47
2023-04-28T01:55:27.294Z,73.45
2023-04-28T01:56:30.504Z,73.61
2023-04-28T01:57:35.415Z,73.58
2023-04-28T01:58:38.444Z,73.30
2023-04-28T01:59:41.364Z,73.23
2023-04-28T02:00:44.183Z,73.42
2023-04-28T02:01:46.309Z,73.62
2023-04-28T02:02:49.169Z,73.71
2023-04-28T02:03:52.092Z,73.69
2023-04-28T02:04:55.187Z,73.96
2023-04-28T02:05:57.144Z,74.10
2023-04-28T02:07:00.013Z,73.84
2023-04-28T02:08:01.983Z,73.86
2023-04-28T02:09:05.712Z,74.29
2023-04-28T02:10:10.132Z,74.23
2023-04-28T02:11:14.421Z,73.73
2023-04-28T02:12:17.417Z,73.94
2023-04-28T02:13:20.209Z,73.96
2023-04-28T02:14:22.078Z,73.93
2023-04-28T02:15:24.926Z,74.45
2023-04-28T02:16:28.498Z,74.01
2023-04-28T02:17:31.376Z,74.33
2023-04-28T02:18:33.209Z,74.30
2023-04-28T02:19:36.385Z,74.38
2023-04-28T02:20:38.548Z,74.52
2023-04-28T02:21:44.026Z,74.14
2023-04-28T02:22:45.850Z,74.28
2023-04-28T02:23:48.677Z,74.19
2023-04-28T02:24:50.693Z,73.85
2023-04-28T02:26:01.812Z,74.28
2023-04-28T02:27:05.665Z,74.66
2023-04-28T02:28:08.435Z,74.34
2023-04-28T02:29:10.260Z,73.95
2023-04-28T02:30:13.747Z,74.02
2023-04-28T02:31:15.611Z,74.38
2023-04-28T02:32:18.353Z,74.52
2023-04-28T02:33:20.160Z,74.11
2023-04-28T02:34:22.916Z,74.14
2023-04-28T02:35:24.767Z,73.98
2023-04-28T02:36:28.558Z,74.24
2023-04-28T02:37:30.447Z,73.94
2023-04-28T02:38:33.435Z,74.61
2023-04-28T02:39:35.531Z,74.33
2023-04-28T02:40:38.373Z,74.76
2023-04-28T02:41:40.166Z,74.62
2023-04-28T02:42:46.195Z,74.50
2023-04-28T02:43:48.028Z,74.70
2023-04-28T02:44:50.786Z,74.74
2023-04-28T02:45:52.902Z,74.93
2023-04-28T02:46:55.785Z,75.08
2023-04-28T02:48:03.513Z,75.42
2023-04-28T02:49:06.381Z,75.40
2023-04-28T02:50:09.378Z,75.77
2023-04-28T02:51:14.080Z,75.41
2023-04-28T02:52:16.303Z,75.63
2023-04-28T02:53:19.160Z,75.14
2023-04-28T02:54:27.481Z,75.35
2023-04-28T02:55:32.143Z,74.80
2023-04-28T02:56:35.445Z,74.83
2023-04-28T02:57:39.054Z,74.87
2023-04-28T02:58:42.351Z,74.82
2023-04-28T02:59:45.099Z,74.95
2023-04-28T03:00:47.248Z,75.18
2023-04-28T03:01:51.727Z,74.94
2023-04-28T03:02:53.717Z,75.08
2023-04-28T03:03:56.907Z,75.05
2023-04-28T03:04:59.026Z,74.86
2023-04-28T03:06:01.823Z,74.82
2023-04-28T03:07:03.668Z,74.84
2023-04-28T03:08:07.522Z,75.06
2023-04-28T03:09:09.986Z,75.01
2023-04-28T03:10:12.911Z,74.99
2023-04-28T03:11:14.863Z,74.99
2023-04-28T03:12:17.689Z,75.07
2023-04-28T03:13:21.600Z,75.08
2023-04-28T03:14:26.856Z,75.00
2023-04-28T03:15:29.722Z,74.70
2023-04-28T03:16:33.611Z,74.85
2023-04-28T03:17:36.635Z,74.90
2023-04-28T03:18:39.436Z,74.76
2023-04-28T03:19:41.318Z,74.72
2023-04-28T03:20:44.236Z,74.63
2023-04-28T03:21:46.237Z,74.43
2023-04-28T03:22:50.977Z,74.20
2023-04-28T03:23:53.622Z,74.44
2023-04-28T03:24:56.458Z,74.43
2023-04-28T03:25:58.688Z,74.57
2023-04-28T03:27:03.635Z,74.41
2023-04-28T03:28:05.859Z,74.31
2023-04-28T03:29:08.618Z,74.50
2023-04-28T03:30:12.644Z,74.40
2023-04-28T03:31:15.391Z,74.92
2023-04-28T03:32:17.317Z,75.17
2023-04-28T03:33:20.400Z,75.20
2023-04-28T03:34:22.506Z,75.19
2023-04-28T03:35:25.504Z,75.21
2023-04-28T03:36:28.661Z,75.13
2023-04-28T03:37:34.936Z,75.43
2023-04-28T03:38:37.840Z,75.41
2023-04-28T03:39:39.713Z,75.45
2023-04-28T03:40:42.682Z,75.45
2023-04-28T03:41:50.113Z,75.51
2023-04-28T03:43:25.026Z,75.60
2023-04-28T03:44:43.081Z,75.41
2023-04-28T03:45:47.483Z,75.41
2023-04-28T03:46:49.510Z,75.09
2023-04-28T03:47:52.510Z,75.31
2023-04-28T03:48:54.393Z,75.28
2023-04-28T03:49:58.854Z,75.32
2023-04-28T03:51:00.764Z,75.31
2023-04-28T03:52:04.368Z,75.43
2023-04-28T03:53:06.534Z,75.56
2023-04-28T03:54:09.648Z,75.74
2023-04-28T03:55:11.936Z,75.98
2023-04-28T03:56:14.786Z,75.94
2023-04-28T03:57:16.763Z,75.83
2023-04-28T03:58:19.701Z,75.78
2023-04-28T03:59:21.711Z,75.77
2023-04-28T04:00:25.719Z,75.94
2023-04-28T04:01:30.613Z,76.13
2023-04-28T04:02:33.543Z,75.89
2023-04-28T04:03:35.670Z,75.56
2023-04-28T04:04:38.779Z,75.78
2023-04-28T04:05:41.419Z,76.09
2023-04-28T04:06:44.301Z,76.32
2023-04-28T04:07:47.032Z,76.39
2023-04-28T04:08:49.868Z,76.68
2023-04-28T04:09:51.821Z,77.07
2023-04-28T04:10:55.854Z,76.51
2023-04-28T04:11:58.808Z,76.59
2023-04-28T04:13:01.783Z,76.59
2023-04-28T04:14:03.614Z,76.52
2023-04-28T04:15:07.820Z,76.36
2023-04-28T04:16:10.087Z,76.75
2023-04-28T04:17:14.274Z,76.68
2023-04-28T04:18:16.383Z,76.88
2023-04-28T04:19:39.509Z,76.59
2023-04-28T04:20:41.280Z,77.08
2023-04-28T04:21:44.086Z,76.53
2023-04-28T04:22:45.945Z,76.64
2023-04-28T04:23:49.853Z,76.86
2023-04-28T04:24:51.711Z,77.09
2023-04-28T04:25:54.494Z,76.92
2023-04-28T04:26:56.273Z,76.86
2023-04-28T04:28:09.594Z,76.62
2023-04-28T04:29:11.408Z,76.52
2023-04-28T04:30:14.523Z,77.13
2023-04-28T04:31:16.346Z,76.68
2023-04-28T04:32:20.861Z,77.08
2023-04-28T04:33:23.366Z,77.34
2023-04-28T04:34:26.280Z,76.66
2023-04-28T04:35:28.506Z,76.68
2023-04-28T04:36:31.571Z,76.11
2023-04-28T04:37:33.936Z,76.59
2023-04-28T04:38:38.286Z,76.35
2023-04-28T04:39:47.931Z,77.08
2023-04-28T04:40:51.644Z,77.24
2023-04-28T04:41:53.482Z,76.69
2023-04-28T04:43:25.415Z,76.27
2023-04-28T04:44:28.012Z,76.32
2023-04-28T04:45:31.925Z,76.50
2023-04-28T04:46:33.797Z,77.32
2023-04-28T04:47:38.015Z,76.95
2023-04-28T04:48:39.839Z,77.06
2023-04-28T04:49:43.015Z,76.78
2023-04-28T04:50:45.021Z,76.66
2023-04-28T04:51:48.261Z,77.00
2023-04-28T04:52:50.148Z,76.76
2023-04-28T04:53:53.897Z,76.14
2023-04-28T04:54:56.450Z,75.94
2023-04-28T04:56:00.539Z,75.69
2023-04-28T04:57:02.552Z,75.90
2023-04-28T04:58:37.830Z,75.72
2023-04-28T04:59:59.868Z,76.11
2023-04-28T05:01:03.332Z,76.35
2023-04-28T05:02:05.161Z,76.12
2023-04-28T05:03:09.893Z,75.62
2023-04-28T05:04:12.167Z,75.06
2023-04-28T05:05:21.476Z,74.60
2023-04-28T05:06:39.622Z,74.29
2023-04-28T05:07:41.518Z,73.61
2023-04-28T05:08:44.866Z,73.17
2023-04-28T05:09:47.075Z,72.73
2023-04-28T05:10:49.855Z,72.52
2023-04-28T05:11:52.069Z,71.89
2023-04-28T05:12:54.893Z,71.61
2023-04-28T05:13:56.671Z,70.46
2023-04-28T05:15:01.227Z,70.91
2023-04-28T05:16:03.610Z,71.02
2023-04-28T05:17:38.530Z,70.33
2023-04-28T05:18:42.185Z,69.59
2023-04-28T05:19:46.935Z,69.64
2023-04-28T05:20:49.736Z,69.29
2023-04-28T05:21:54.947Z,68.56
2023-04-28T05:22:58.363Z,68.79
2023-04-28T05:24:01.157Z,68.49
2023-04-28T05:25:07.210Z,68.17
2023-04-28T05:26:10.282Z,69.12
2023-04-28T05:27:12.080Z,68.66
2023-04-28T05:28:14.990Z,68.59
2023-04-28T05:29:18.466Z,68.92
2023-04-28T05:30:21.416Z,69.30
2023-04-28T05:31:23.819Z,69.06
2023-04-28T05:32:26.985Z,68.92
2023-04-28T05:33:28.802Z,69.41
2023-04-28T05:34:33.018Z,69.56
2023-04-28T05:35:35.968Z,69.54
2023-04-28T05:36:38.976Z,69.34
2023-04-28T05:37:45.083Z,69.11
2023-04-28T05:38:48.271Z,68.92
2023-04-28T05:39:50.090Z,68.65
2023-04-28T05:40:52.975Z,67.99
2023-04-28T05:41:54.787Z,67.50
2023-04-28T05:42:57.808Z,67.40
2023-04-28T05:43:59.685Z,67.00
2023-04-28T05:45:02.684Z,67.26
2023-04-28T05:46:09.732Z,67.23
2023-04-28T05:47:17.949Z,66.42
2023-04-28T05:48:20.069Z,66.08
2023-04-28T05:49:22.932Z,65.68
2023-04-28T05:50:26.057Z,64.31
2023-04-28T05:51:28.876Z,65.01
2023-04-28T05:52:31.199Z,64.67
2023-04-28T05:53:34.062Z,63.71
2023-04-28T05:54:35.898Z,64.44
2023-04-28T05:55:39.550Z,64.85
2023-04-28T05:56:41.336Z,64.09
2023-04-28T05:57:52.452Z,63.55
2023-04-28T05:58:55.998Z,63.61
2023-04-28T05:59:58.879Z,63.15
2023-04-28T06:01:00.714Z,63.38
2023-04-28T06:02:03.553Z,62.84
2023-04-28T06:03:05.614Z,62.38
2023-04-28T06:04:09.227Z,62.41
2023-04-28T06:05:11.663Z,61.35
2023-04-28T06:06:16.512Z,60.30
2023-04-28T06:07:18.371Z,60.10
2023-04-28T06:08:21.155Z,59.58
2023-04-28T06:09:23.010Z,59.11
2023-04-28T06:10:27.009Z,58.20
2023-04-28T06:11:28.947Z,58.93
2023-04-28T06:12:31.744Z,58.86
2023-04-28T06:13:33.519Z,58.42
2023-04-28T06:14:37.755Z,58.33
2023-04-28T06:15:39.680Z,57.73
2023-04-28T06:16:42.563Z,56.06
2023-04-28T06:17:44.457Z,55.70
2023-04-28T06:18:49.621Z,55.16
2023-04-28T06:19:54.335Z,55.63
2023-04-28T06:20:57.211Z,55.39
2023-04-28T06:22:00.373Z,55.88
2023-04-28T06:23:03.312Z,56.02
2023-04-28T06:24:05.646Z,55.69
2023-04-28T06:25:09.769Z,55.19
2023-04-28T06:26:19.358Z,54.28
2023-04-28T06:27:22.130Z,54.16
2023-04-28T06:28:24.587Z,53.19
2023-04-28T06:29:29.240Z,52.37
2023-04-28T06:30:31.425Z,54.13
2023-04-28T06:31:34.416Z,53.79
2023-04-28T06:32:36.271Z,53.37
2023-04-28T06:33:39.040Z,53.09
2023-04-28T06:34:42.245Z,51.54
2023-04-28T06:35:45.032Z,52.21
2023-04-28T06:36:47.319Z,52.07
2023-04-28T06:37:51.479Z,51.96
2023-04-28T06:38:53.262Z,51.94
2023-04-28T06:39:55.969Z,51.46
2023-04-28T06:40:57.805Z,51.54
2023-04-28T06:42:02.349Z,51.32
2023-04-28T06:43:05.685Z,50.68
2023-04-28T06:44:19.393Z,51.58
2023-04-28T06:45:21.670Z,51.06
2023-04-28T06:46:24.614Z,50.45
2023-04-28T06:47:26.701Z,50.47
2023-04-28T06:48:29.761Z,49.23
2023-04-28T06:49:31.537Z,49.35
2023-04-28T06:50:36.727Z,48.77
2023-04-28T06:51:41.363Z,48.82
2023-04-28T06:52:44.121Z,48.55
2023-04-28T06:53:47.316Z,48.40
2023-04-28T06:54:50.890Z,49.12
2023-04-28T06:55:53.011Z,48.96
2023-04-28T06:56:56.626Z,48.49
2023-04-28T06:57:59.685Z,49.10
2023-04-28T06:59:03.200Z,48.33
2023-04-28T07:00:06.475Z,48.24
2023-04-28T07:01:09.306Z,47.07
2023-04-28T07:02:11.403Z,48.06
2023-04-28T07:03:14.404Z,47.90
2023-04-28T07:04:16.796Z,47.79
2023-04-28T07:05:20.132Z,48.14
2023-04-28T07:06:23.046Z,47.44
2023-04-28T07:07:24.818Z,47.20
2023-04-28T07:08:29.801Z,46.96
2023-04-28T07:09:33.933Z,47.06
2023-04-28T07:10:36.851Z,47.33
2023-04-28T07:11:38.679Z,47.39
2023-04-28T07:12:41.439Z,46.53
2023-04-28T07:13:44.233Z,46.82
2023-04-28T07:14:46.512Z,46.70
2023-04-28T07:15:49.459Z,45.44
2023-04-28T07:16:51.225Z,45.08
2023-04-28T07:17:54.072Z,44.99
2023-04-28T07:18:56.298Z,44.89
2023-04-28T07:19:59.031Z,44.77
2023-04-28T07:21:03.402Z,44.45
2023-04-28T07:22:07.157Z,45.02
2023-04-28T07:23:10.165Z,44.49
2023-04-28T07:24:12.000Z,44.87
2023-04-28T07:25:16.321Z,44.34
2023-04-28T07:26:19.042Z,43.25
2023-04-28T07:27:20.822Z,43.26
2023-04-28T07:28:23.695Z,43.14
2023-04-28T07:29:28.821Z,42.63
2023-04-28T07:30:31.949Z,42.03
2023-04-28T07:31:33.837Z,42.51
2023-04-28T07:32:36.892Z,42.98
2023-04-28T07:33:39.624Z,42.43
2023-04-28T07:34:41.564Z,42.77
2023-04-28T07:35:44.387Z,42.91
2023-04-28T07:36:46.294Z,42.32
2023-04-28T07:37:49.243Z,42.27
2023-04-28T07:38:51.049Z,41.32
2023-04-28T07:39:53.881Z,41.99
2023-04-28T07:40:58.209Z,41.84
2023-04-28T07:41:59.982Z,41.28
2023-04-28T07:43:03.704Z,42.03
2023-04-28T07:44:08.149Z,41.49
2023-04-28T07:45:10.808Z,40.96
2023-04-28T07:46:13.767Z,41.00
2023-04-28T07:47:15.621Z,40.79
2023-04-28T07:48:18.500Z,40.83
2023-04-28T07:49:20.519Z,40.61
2023-04-28T07:50:23.492Z,40.83
2023-04-28T07:51:25.507Z,40.53
2023-04-28T07:52:28.521Z,40.56
2023-04-28T07:53:30.382Z,39.96
2023-04-28T07:54:35.108Z,40.08
2023-04-28T07:55:38.820Z,39.98
2023-04-28T07:56:42.992Z,39.80
2023-04-28T07:57:44.880Z,39.81
2023-04-28T07:58:47.982Z,39.68
2023-04-28T07:59:50.889Z,39.34
2023-04-28T08:00:52.783Z,39.19
2023-04-28T08:01:55.642Z,38.84
2023-04-28T08:02:57.877Z,38.91
2023-04-28T08:04:01.285Z,39.01
2023-04-28T08:05:04.112Z,38.78
2023-04-28T08:06:07.898Z,38.90
2023-04-28T08:07:12.515Z,38.92
2023-04-28T08:08:15.313Z,39.24
2023-04-28T08:09:18.085Z,38.96
2023-04-28T08:10:21.290Z,39.23
2023-04-28T08:11:23.201Z,39.03
2023-04-28T08:12:27.279Z,38.60
2023-04-28T08:13:30.741Z,39.04
2023-04-28T08:14:32.540Z,38.91
2023-04-28T08:15:35.353Z,38.54
2023-04-28T08:16:40.306Z,38.49
2023-04-28T08:17:43.181Z,37.98
2023-04-28T08:18:45.893Z,38.59
2023-04-28T08:19:48.977Z,37.91
2023-04-28T08:20:51.797Z,38.57
2023-04-28T08:21:53.558Z,38.37
2023-04-28T08:22:56.264Z,38.45
2023-04-28T08:23:58.112Z,38.78
2023-04-28T08:25:00.877Z,38.50
2023-04-28T08:26:03.635Z,38.26
2023-04-28T08:27:05.486Z,39.14
2023-04-28T08:28:10.072Z,39.81
2023-04-28T08:29:13.137Z,39.55
2023-04-28T08:30:16.250Z,38.97
2023-04-28T08:31:18.065Z,39.09
2023-04-28T08:32:20.859Z,38.82
2023-04-28T08:33:24.090Z,38.84
2023-04-28T08:34:27.552Z,37.61
2023-04-28T08:35:30.948Z,37.49
2023-04-28T08:36:33.762Z,37.67
2023-04-28T08:37:35.875Z,38.29
2023-04-28T08:38:38.696Z,37.41
2023-04-28T08:39:40.490Z,37.83
2023-04-28T08:40:43.673Z,38.05
2023-04-28T08:41:46.417Z,37.86
2023-04-28T08:42:49.510Z,38.19
2023-04-28T08:43:53.606Z,36.81
2023-04-28T08:44:59.486Z,36.85
2023-04-28T08:46:05.889Z,36.41
2023-04-28T08:47:13.387Z,36.58
2023-04-28T08:48:20.913Z,37.32
2023-04-28T08:49:24.788Z,37.19
2023-04-28T08:50:28.709Z,37.06
2023-04-28T08:51:35.285Z,36.39
2023-04-28T08:52:37.097Z,36.31
2023-04-28T08:54:06.202Z,36.65
2023-04-28T08:55:07.512Z,37.32
2023-04-28T08:56:10.771Z,37.22
2023-04-28T08:57:13.914Z,36.63
2023-04-28T08:58:15.721Z,36.15
2023-04-28T08:59:20.039Z,36.29
2023-04-28T09:00:21.828Z,36.35
2023-04-28T09:01:25.103Z,36.24
2023-04-28T09:02:27.205Z,36.58
2023-04-28T09:03:30.236Z,35.99
2023-04-28T09:04:32.311Z,36.34
2023-04-28T09:05:35.369Z,36.64
2023-04-28T09:06:38.390Z,36.64
2023-04-28T09:07:41.706Z,36.25
2023-04-28T09:08:43.754Z,35.01
2023-04-28T09:09:46.574Z,36.17
2023-04-28T09:10:48.528Z,35.79
2023-04-28T09:11:56.447Z,35.65
2023-04-28T09:12:59.254Z,36.37
2023-04-28T09:14:12.635Z,34.62
2023-04-28T09:15:29.502Z,35.13
2023-04-28T09:16:41.381Z,35.29
2023-04-28T09:17:51.049Z,34.48
2023-04-28T09:18:58.025Z,34.80
2023-04-28T09:20:00.133Z,34.49
2023-04-28T09:21:07.423Z,33.69
2023-04-28T09:22:24.974Z,34.27
2023-04-28T09:23:28.730Z,34.63
2023-04-28T09:24:32.002Z,34.86
2023-04-28T09:25:34.785Z,33.89
2023-04-28T09:26:50.609Z,33.98
2023-04-28T09:27:53.800Z,33.99
2023-04-28T09:29:11.678Z,33.02
2023-04-28T09:30:14.593Z,34.03
2023-04-28T09:31:25.945Z,33.82
2023-04-28T09:32:28.657Z,34.12
2023-04-28T09:33:31.759Z,34.62
2023-04-28T09:34:42.883Z,33.96
2023-04-28T09:35:47.758Z,34.41
2023-04-28T09:36:49.703Z,34.49
2023-04-28T09:37:59.503Z,33.76
2023-04-28T09:39:01.927Z,33.62
2023-04-28T09:40:07.628Z,33.68
2023-04-28T09:41:09.517Z,33.33
2023-04-28T09:42:12.447Z,33.86
2023-04-28T09:43:23.512Z,33.58
2023-04-28T09:44:26.751Z,33.31
2023-04-28T09:45:42.495Z,33.29
2023-04-28T09:46:47.473Z,33.70
2023-04-28T09:47:49.801Z,33.50
2023-04-28T09:49:01.995Z,32.26
2023-04-28T09:50:06.148Z,33.83
2023-04-28T09:51:11.614Z,33.53
2023-04-28T09:52:15.210Z,34.09
2023-04-28T09:53:18.810Z,33.96
2023-04-28T09:54:21.982Z,34.33
2023-04-28T09:55:25.604Z,33.70
2023-04-28T09:56:28.216Z,34.06
2023-04-28T09:57:32.448Z,34.02
2023-04-28T09:58:35.334Z,34.34
2023-04-28T09:59:38.607Z,34.99
2023-04-28T10:00:40.979Z,34.51
2023-04-28T10:01:46.576Z,34.47
2023-04-28T10:02:50.088Z,34.08
2023-04-28T10:03:54.401Z,34.10
2023-04-28T10:04:57.255Z,34.41
2023-04-28T10:06:00.683Z,33.79
2023-04-28T10:07:02.696Z,33.21
2023-04-28T10:08:06.350Z,33.11
2023-04-28T10:09:08.511Z,33.39
2023-04-28T10:10:14.698Z,33.38
2023-04-28T10:11:17.274Z,32.95
2023-04-28T10:12:21.328Z,33.06
2023-04-28T10:13:23.703Z,32.86
2023-04-28T10:14:26.671Z,33.75
2023-04-28T10:15:28.669Z,32.54
2023-04-28T10:16:33.148Z,32.33
2023-04-28T10:17:37.074Z,32.74
2023-04-28T10:18:40.411Z,32.80
2023-04-28T10:19:42.588Z,31.43
2023-04-28T10:20:47.447Z,31.37
2023-04-28T10:21:56.968Z,30.95
2023-04-28T10:23:09.279Z,31.49
2023-04-28T10:24:16.538Z,31.53
2023-04-28T10:25:26.504Z,32.63
2023-04-28T10:26:59.031Z,32.43
2023-04-28T10:28:04.773Z,32.65
2023-04-28T10:29:08.242Z,32.61
2023-04-28T10:30:23.086Z,32.66
2023-04-28T10:31:30.708Z,32.81
2023-04-28T10:32:33.392Z,33.04
2023-04-28T10:33:38.900Z,33.25
2023-04-28T10:34:40.913Z,33.58
2023-04-28T10:35:45.264Z,33.67
2023-04-28T10:36:48.226Z,33.62
2023-04-28T10:38:08.200Z,33.37
2023-04-28T10:39:12.847Z,33.33
2023-04-28T10:40:34.526Z,32.06
2023-04-28T10:41:37.743Z,33.93
2023-04-28T10:42:52.684Z,33.60
2023-04-28T10:43:56.091Z,34.60
2023-04-28T10:44:58.643Z,33.98
2023-04-28T10:46:06.407Z,34.00
2023-04-28T10:47:09.935Z,33.91
2023-04-28T10:48:13.044Z,33.73
2023-04-28T10:49:17.309Z,33.38
2023-04-28T10:50:21.956Z,32.98
2023-04-28T10:51:31.951Z,33.29
2023-04-28T10:52:51.368Z,34.59
2023-04-28T10:54:17.256Z,33.46
2023-04-28T10:55:36.411Z,33.69
2023-04-28T10:56:39.830Z,33.99
2023-04-28T10:57:44.369Z,34.11
2023-04-28T10:58:46.957Z,33.57
2023-04-28T10:59:51.340Z,33.37
2023-04-28T11:00:53.289Z,32.99
2023-04-28T11:01:56.351Z,33.30
2023-04-28T11:02:59.719Z,33.57
2023-04-28T11:04:08.415Z,33.68
2023-04-28T11:05:14.785Z,34.18
2023-04-28T11:06:21.489Z,34.32
2023-04-28T11:07:24.577Z,34.07
2023-04-28T11:08:36.684Z,33.96
2023-04-28T11:09:49.874Z,32.92
2023-04-28T11:11:18.394Z,32.65
2023-04-28T11:12:21.737Z,32.90
2023-04-28T11:13:27.501Z,32.67
2023-04-28T11:14:35.011Z,32.98
2023-04-28T11:15:37.759Z,32.95
2023-04-28T11:16:50.402Z,33.10
2023-04-28T11:17:57.731Z,32.97
2023-04-28T11:19:04.738Z,33.36
2023-04-28T11:20:09.516Z,33.70
2023-04-28T11:21:14.647Z,33.57
2023-04-28T11:22:18.861Z,33.62
2023-04-28T11:23:20.955Z,33.47
2023-04-28T11:24:25.556Z,32.89
2023-04-28T11:25:27.450Z,33.00
2023-04-28T11:26:30.531Z,33.23
2023-04-28T11:27:33.945Z,32.41
2023-04-28T11:28:38.038Z,31.90
2023-04-28T11:29:42.835Z,31.80
2023-04-28T11:30:44.629Z,31.72
2023-04-28T11:31:51.257Z,32.04
2023-04-28T11:32:53.210Z,31.80
2023-04-28T11:34:00.300Z,30.94
2023-04-28T11:35:04.300Z,31.44
2023-04-28T11:36:07.140Z,31.42
2023-04-28T11:37:16.681Z,30.83
2023-04-28T11:38:18.596Z,31.26
2023-04-28T11:39:28.479Z,30.69
2023-04-28T11:40:30.366Z,30.56
2023-04-28T11:41:34.328Z,30.40
2023-04-28T11:42:36.070Z,30.66
2023-04-28T11:43:46.879Z,30.63
2023-04-28T11:44:52.295Z,29.69
2023-04-28T11:45:54.295Z,30.32
2023-04-28T11:47:00.629Z,31.01
2023-04-28T11:48:21.027Z,29.02
2023-04-28T11:49:25.311Z,30.94
2023-04-28T11:50:35.883Z,31.56
2023-04-28T11:51:39.712Z,31.71
2023-04-28T11:52:53.189Z,31.07
2023-04-28T11:53:55.802Z,31.04
2023-04-28T11:55:00.797Z,30.79
2023-04-28T11:56:08.032Z,30.47
2023-04-28T11:57:18.211Z,30.41
2023-04-28T11:58:22.357Z,30.25
2023-04-28T11:59:26.978Z,31.06
2023-04-28T12:00:29.745Z,30.97
2023-04-28T12:01:34.044Z,31.11
2023-04-28T12:02:37.027Z,31.42
2023-04-28T12:03:45.819Z,31.47
2023-04-28T12:04:50.630Z,31.56
2023-04-28T12:05:52.601Z,31.29
2023-04-28T12:07:07.841Z,30.99
2023-04-28T12:08:11.316Z,30.58
2023-04-28T12:09:17.998Z,31.01
2023-04-28T12:10:21.903Z,30.93
2023-04-28T12:11:25.638Z,31.15
2023-04-28T12:13:39.034Z,30.67
2023-04-28T12:14:58.075Z,30.29
2023-04-28T12:16:03.655Z,31.13
2023-04-28T12:17:06.403Z,31.64
2023-04-28T12:18:10.645Z,31.27
2023-04-28T12:19:15.162Z,31.55
2023-04-28T12:20:35.757Z,30.15
2023-04-28T12:21:38.874Z,30.91
2023-04-28T12:22:45.837Z,30.30
2023-04-28T12:23:48.944Z,31.00
2023-04-28T12:25:07.990Z,30.50
2023-04-28T12:26:10.099Z,30.76
2023-04-28T12:27:21.588Z,31.29
2023-04-28T12:28:23.417Z,30.66
2023-04-28T12:29:43.078Z,29.97
2023-04-28T12:30:45.418Z,30.65
2023-04-28T12:31:52.692Z,30.02
2023-04-28T12:32:56.052Z,30.22
2023-04-28T12:33:58.994Z,30.44
2023-04-28T12:35:02.113Z,30.35
2023-04-28T12:36:04.630Z,30.06
2023-04-28T12:37:07.778Z,30.48
2023-04-28T12:38:13.904Z,31.00
2023-04-28T12:39:19.776Z,30.52
2023-04-28T12:40:22.945Z,30.58
2023-04-28T12:41:25.366Z,30.07
2023-04-28T12:42:29.224Z,29.38
2023-04-28T12:43:31.277Z,29.67
2023-04-28T12:44:36.519Z,29.41
2023-04-28T12:45:39.022Z,28.90
2023-04-28T12:46:42.032Z,28.92
2023-04-28T12:47:44.075Z,28.80
2023-04-28T12:48:46.919Z,29.01
2023-04-28T12:49:50.755Z,29.46
2023-04-28T12:50:53.554Z,29.57
2023-04-28T12:51:55.507Z,29.86
2023-04-28T12:52:58.571Z,29.90
2023-04-28T12:54:00.575Z,29.78
2023-04-28T12:55:05.013Z,29.10
2023-04-28T12:56:06.905Z,29.27
2023-04-28T12:57:09.659Z,29.37
2023-04-28T12:58:11.538Z,28.93
2023-04-28T12:59:14.269Z,29.34
2023-04-28T13:00:16.386Z,29.04
2023-04-28T13:01:19.258Z,29.38
2023-04-28T13:02:21.213Z,29.14
2023-04-28T13:03:24.159Z,28.81
2023-04-28T13:04:27.409Z,28.55
2023-04-28T13:05:29.923Z,28.70
2023-04-28T13:06:32.925Z,28.84
2023-04-28T13:07:35.810Z,28.87
2023-04-28T13:08:37.596Z,28.65
2023-04-28T13:09:41.316Z,28.17
2023-04-28T13:10:45.596Z,28.07
2023-04-28T13:11:48.334Z,28.13
2023-04-28T13:12:50.113Z,28.47
2023-04-28T13:13:53.271Z,27.79
2023-04-28T13:14:55.022Z,27.45
2023-04-28T13:15:57.762Z,27.65
2023-04-28T13:17:01.598Z,28.24
2023-04-28T13:18:03.617Z,28.91
2023-04-28T13:19:09.520Z,28.63
2023-04-28T13:20:11.955Z,27.81
2023-04-28T13:21:14.726Z,27.51
2023-04-28T13:22:16.716Z,27.65
2023-04-28T13:23:19.563Z,28.35
2023-04-28T13:24:22.430Z,28.00
2023-04-28T13:25:24.195Z,28.02
2023-04-28T13:26:28.351Z,27.74
2023-04-28T13:27:30.543Z,27.69
2023-04-28T13:28:33.308Z,28.42
2023-04-28T13:29:35.859Z,28.46
2023-04-28T13:30:38.570Z,28.61
2023-04-28T13:31:40.483Z,29.02
2023-04-28T13:32:43.263Z,29.13
2023-04-28T13:33:45.468Z,28.37
2023-04-28T13:34:48.437Z,28.51
2023-04-28T13:35:50.517Z,28.40
2023-04-28T13:36:54.352Z,28.41
2023-04-28T13:38:01.635Z,28.29
2023-04-28T13:39:06.237Z,27.55
2023-04-28T13:40:09.407Z,28.01
2023-04-28T13:41:12.102Z,27.93
2023-04-28T13:42:16.102Z,27.56
2023-04-28T13:43:18.842Z,27.72
2023-04-28T13:44:21.189Z,28.15
2023-04-28T13:45:24.039Z,28.26
2023-04-28T13:46:25.806Z,27.65
2023-04-28T13:47:28.986Z,27.39
2023-04-28T13:48:30.806Z,27.69